sensor_id;sensor_type;location;lat;lon;timestamp;P1;durP1;ratioP1;P2;durP2;ratioP2
34673;SDS011;20879;55.668;37.858;2023-03-01T00:00:45;1.25;;;0.60;;
34673;SDS011;20879;55.668;37.858;2023-03-01T00:03:15;1.60;;;0.57;;
34673;SDS011;20879;55.668;37.858;2023-03-01T00:05:44;2.65;;;0.60;;
34673;SDS011;20879;55.668;37.858;2023-03-01T00:08:14;1.67;;;0.55;;
34673;SDS011;20879;55.668;37.858;2023-03-01T00:10:43;1.42;;;0.60;;
34673;SDS011;20879;55.668;37.858;2023-03-01T00:13:12;1.33;;;0.75;;
34673;SDS011;20879;55.668;37.858;2023-03-01T00:15:44;2.22;;;0.60;;
34673;SDS011;20879;55.668;37.858;2023-03-01T00:18:14;2.58;;;0.80;;
34673;SDS011;20879;55.668;37.858;2023-03-01T00:20:48;0.77;;;0.75;;
34673;SDS011;20879;55.668;37.858;2023-03-01T00:23:20;0.77;;;0.50;;
34673;SDS011;20879;55.668;37.858;2023-03-01T00:25:51;1.27;;;0.80;;
34673;SDS011;20879;55.668;37.858;2023-03-01T00:28:21;0.60;;;0.47;;
34673;SDS011;20879;55.668;37.858;2023-03-01T00:30:52;2.13;;;0.50;;
34673;SDS011;20879;55.668;37.858;2023-03-01T00:33:27;1.80;;;0.65;;
34673;SDS011;20879;55.668;37.858;2023-03-01T00:35:57;3.13;;;0.57;;
34673;SDS011;20879;55.668;37.858;2023-03-01T00:38:34;2.50;;;0.60;;
34673;SDS011;20879;55.668;37.858;2023-03-01T00:41:10;1.83;;;0.55;;
34673;SDS011;20879;55.668;37.858;2023-03-01T00:43:42;1.50;;;0.50;;
34673;SDS011;20879;55.668;37.858;2023-03-01T00:46:14;2.10;;;0.45;;
34673;SDS011;20879;55.668;37.858;2023-03-01T00:48:46;1.13;;;0.50;;
34673;SDS011;20879;55.668;37.858;2023-03-01T00:51:16;0.57;;;0.50;;
34673;SDS011;20879;55.668;37.858;2023-03-01T00:53:49;0.40;;;0.40;;
34673;SDS011;20879;55.668;37.858;2023-03-01T00:56:20;2.50;;;0.77;;
34673;SDS011;20879;55.668;37.858;2023-03-01T00:58:55;1.92;;;0.55;;
34673;SDS011;20879;55.668;37.858;2023-03-01T01:01:26;2.05;;;0.63;;
34673;SDS011;20879;55.668;37.858;2023-03-01T01:03:59;3.83;;;0.73;;
34673;SDS011;20879;55.668;37.858;2023-03-01T01:06:31;2.13;;;0.80;;
34673;SDS011;20879;55.668;37.858;2023-03-01T01:09:02;2.00;;;0.82;;
34673;SDS011;20879;55.668;37.858;2023-03-01T01:11:33;1.60;;;0.70;;
34673;SDS011;20879;55.668;37.858;2023-03-01T01:14:03;2.47;;;0.60;;
34673;SDS011;20879;55.668;37.858;2023-03-01T01:16:35;4.88;;;0.80;;
34673;SDS011;20879;55.668;37.858;2023-03-01T01:19:06;1.00;;;0.70;;
34673;SDS011;20879;55.668;37.858;2023-03-01T01:21:35;2.65;;;0.90;;
34673;SDS011;20879;55.668;37.858;2023-03-01T01:24:05;1.08;;;0.70;;
34673;SDS011;20879;55.668;37.858;2023-03-01T01:26:40;0.68;;;0.60;;
34673;SDS011;20879;55.668;37.858;2023-03-01T01:29:16;1.80;;;0.65;;
34673;SDS011;20879;55.668;37.858;2023-03-01T01:31:47;2.45;;;0.80;;
34673;SDS011;20879;55.668;37.858;2023-03-01T01:34:21;1.00;;;0.70;;
34673;SDS011;20879;55.668;37.858;2023-03-01T01:36:57;2.33;;;0.82;;
34673;SDS011;20879;55.668;37.858;2023-03-01T01:39:29;2.20;;;0.80;;
34673;SDS011;20879;55.668;37.858;2023-03-01T01:41:59;0.55;;;0.50;;
34673;SDS011;20879;55.668;37.858;2023-03-01T01:44:29;1.73;;;0.50;;
34673;SDS011;20879;55.668;37.858;2023-03-01T01:47:00;2.33;;;0.70;;
34673;SDS011;20879;55.668;37.858;2023-03-01T01:49:33;1.50;;;0.60;;
34673;SDS011;20879;55.668;37.858;2023-03-01T01:52:07;1.15;;;0.68;;
34673;SDS011;20879;55.668;37.858;2023-03-01T01:54:41;0.52;;;0.52;;
34673;SDS011;20879;55.668;37.858;2023-03-01T01:57:14;1.65;;;0.65;;
34673;SDS011;20879;55.668;37.858;2023-03-01T01:59:48;2.90;;;0.80;;
34673;SDS011;20879;55.668;37.858;2023-03-01T02:02:23;3.03;;;0.77;;
34673;SDS011;20879;55.668;37.858;2023-03-01T02:05:01;1.70;;;0.80;;
34673;SDS011;20879;55.668;37.858;2023-03-01T02:07:36;1.25;;;0.63;;
34673;SDS011;20879;55.668;37.858;2023-03-01T02:10:13;1.00;;;0.50;;
34673;SDS011;20879;55.668;37.858;2023-03-01T02:12:42;3.47;;;0.65;;
34673;SDS011;20879;55.668;37.858;2023-03-01T02:15:32;1.42;;;0.50;;
34673;SDS011;20879;55.668;37.858;2023-03-01T02:18:05;1.42;;;0.65;;
34673;SDS011;20879;55.668;37.858;2023-03-01T02:20:38;1.05;;;0.50;;
34673;SDS011;20879;55.668;37.858;2023-03-01T02:23:23;1.42;;;0.68;;
34673;SDS011;20879;55.668;37.858;2023-03-01T02:25:57;1.15;;;0.55;;
34673;SDS011;20879;55.668;37.858;2023-03-01T02:28:37;0.98;;;0.50;;
34673;SDS011;20879;55.668;37.858;2023-03-01T02:31:09;1.85;;;0.60;;
34673;SDS011;20879;55.668;37.858;2023-03-01T02:33:52;0.22;;;0.22;;
34673;SDS011;20879;55.668;37.858;2023-03-01T02:36:23;0.70;;;0.40;;
34673;SDS011;20879;55.668;37.858;2023-03-01T02:39:06;2.38;;;0.68;;
34673;SDS011;20879;55.668;37.858;2023-03-01T02:41:41;1.33;;;0.60;;
34673;SDS011;20879;55.668;37.858;2023-03-01T02:44:22;2.38;;;0.50;;
34673;SDS011;20879;55.668;37.858;2023-03-01T02:49:29;0.95;;;0.45;;
34673;SDS011;20879;55.668;37.858;2023-03-01T02:54:48;0.70;;;0.60;;
34673;SDS011;20879;55.668;37.858;2023-03-01T02:57:24;1.25;;;0.50;;
34673;SDS011;20879;55.668;37.858;2023-03-01T03:00:04;1.10;;;0.35;;
34673;SDS011;20879;55.668;37.858;2023-03-01T03:02:36;2.40;;;0.65;;
34673;SDS011;20879;55.668;37.858;2023-03-01T03:05:26;2.50;;;0.65;;
34673;SDS011;20879;55.668;37.858;2023-03-01T03:07:57;1.00;;;0.40;;
34673;SDS011;20879;55.668;37.858;2023-03-01T03:10:36;1.98;;;0.73;;
34673;SDS011;20879;55.668;37.858;2023-03-01T03:13:07;0.68;;;0.40;;
34673;SDS011;20879;55.668;37.858;2023-03-01T03:15:40;3.10;;;0.88;;
34673;SDS011;20879;55.668;37.858;2023-03-01T03:18:12;1.88;;;0.68;;
34673;SDS011;20879;55.668;37.858;2023-03-01T03:20:49;1.92;;;0.40;;
34673;SDS011;20879;55.668;37.858;2023-03-01T03:23:24;2.20;;;0.50;;
34673;SDS011;20879;55.668;37.858;2023-03-01T03:25:55;0.22;;;0.22;;
34673;SDS011;20879;55.668;37.858;2023-03-01T03:28:25;2.08;;;0.73;;
34673;SDS011;20879;55.668;37.858;2023-03-01T03:30:56;2.05;;;0.77;;
34673;SDS011;20879;55.668;37.858;2023-03-01T03:33:29;1.60;;;0.60;;
34673;SDS011;20879;55.668;37.858;2023-03-01T03:35:58;0.50;;;0.40;;
34673;SDS011;20879;55.668;37.858;2023-03-01T03:38:28;2.65;;;0.90;;
34673;SDS011;20879;55.668;37.858;2023-03-01T03:41:01;1.15;;;0.60;;
34673;SDS011;20879;55.668;37.858;2023-03-01T03:43:35;4.03;;;0.75;;
34673;SDS011;20879;55.668;37.858;2023-03-01T03:46:08;2.15;;;0.40;;
34673;SDS011;20879;55.668;37.858;2023-03-01T03:48:39;3.42;;;0.70;;
34673;SDS011;20879;55.668;37.858;2023-03-01T03:51:15;2.38;;;0.90;;
34673;SDS011;20879;55.668;37.858;2023-03-01T03:53:51;2.05;;;0.75;;
34673;SDS011;20879;55.668;37.858;2023-03-01T03:56:20;2.00;;;0.70;;
34673;SDS011;20879;55.668;37.858;2023-03-01T03:58:54;0.88;;;0.65;;
34673;SDS011;20879;55.668;37.858;2023-03-01T04:01:25;1.80;;;0.90;;
34673;SDS011;20879;55.668;37.858;2023-03-01T04:03:55;0.80;;;0.75;;
34673;SDS011;20879;55.668;37.858;2023-03-01T04:06:30;1.38;;;0.70;;
34673;SDS011;20879;55.668;37.858;2023-03-01T04:08:59;1.88;;;0.70;;
34673;SDS011;20879;55.668;37.858;2023-03-01T04:11:30;2.85;;;0.95;;
34673;SDS011;20879;55.668;37.858;2023-03-01T04:14:06;1.15;;;0.70;;
34673;SDS011;20879;55.668;37.858;2023-03-01T04:16:37;1.75;;;0.80;;
34673;SDS011;20879;55.668;37.858;2023-03-01T04:19:06;1.55;;;0.70;;
34673;SDS011;20879;55.668;37.858;2023-03-01T04:21:36;4.25;;;0.80;;
34673;SDS011;20879;55.668;37.858;2023-03-01T04:24:05;1.00;;;0.40;;
34673;SDS011;20879;55.668;37.858;2023-03-01T04:26:36;0.90;;;0.60;;
34673;SDS011;20879;55.668;37.858;2023-03-01T04:29:15;1.70;;;0.50;;
34673;SDS011;20879;55.668;37.858;2023-03-01T04:31:46;2.50;;;0.77;;
34673;SDS011;20879;55.668;37.858;2023-03-01T04:34:17;2.70;;;0.80;;
34673;SDS011;20879;55.668;37.858;2023-03-01T04:36:47;3.15;;;0.90;;
34673;SDS011;20879;55.668;37.858;2023-03-01T04:39:16;2.63;;;0.70;;
34673;SDS011;20879;55.668;37.858;2023-03-01T04:41:45;4.00;;;1.00;;
34673;SDS011;20879;55.668;37.858;2023-03-01T04:44:14;4.65;;;0.95;;
34673;SDS011;20879;55.668;37.858;2023-03-01T04:46:43;2.67;;;1.00;;
34673;SDS011;20879;55.668;37.858;2023-03-01T04:49:18;0.93;;;0.60;;
34673;SDS011;20879;55.668;37.858;2023-03-01T04:51:47;2.25;;;1.10;;
34673;SDS011;20879;55.668;37.858;2023-03-01T04:54:16;2.88;;;0.90;;
34673;SDS011;20879;55.668;37.858;2023-03-01T04:56:45;3.55;;;0.90;;
34673;SDS011;20879;55.668;37.858;2023-03-01T04:59:14;1.88;;;0.88;;
34673;SDS011;20879;55.668;37.858;2023-03-01T05:01:43;1.85;;;0.85;;
34673;SDS011;20879;55.668;37.858;2023-03-01T05:04:15;1.15;;;0.50;;
34673;SDS011;20879;55.668;37.858;2023-03-01T05:06:44;2.60;;;0.65;;
34673;SDS011;20879;55.668;37.858;2023-03-01T05:09:18;0.68;;;0.60;;
34673;SDS011;20879;55.668;37.858;2023-03-01T05:11:52;1.48;;;0.75;;
34673;SDS011;20879;55.668;37.858;2023-03-01T05:14:22;1.63;;;0.68;;
34673;SDS011;20879;55.668;37.858;2023-03-01T05:16:53;1.20;;;0.70;;
34673;SDS011;20879;55.668;37.858;2023-03-01T05:19:30;2.15;;;0.63;;
34673;SDS011;20879;55.668;37.858;2023-03-01T05:21:59;0.90;;;0.80;;
34673;SDS011;20879;55.668;37.858;2023-03-01T05:24:32;1.33;;;0.70;;
34673;SDS011;20879;55.668;37.858;2023-03-01T05:27:03;1.57;;;0.80;;
34673;SDS011;20879;55.668;37.858;2023-03-01T05:29:32;1.23;;;0.70;;
34673;SDS011;20879;55.668;37.858;2023-03-01T05:32:03;2.40;;;0.90;;
34673;SDS011;20879;55.668;37.858;2023-03-01T05:34:35;0.80;;;0.55;;
34673;SDS011;20879;55.668;37.858;2023-03-01T05:37:05;1.58;;;0.65;;
34673;SDS011;20879;55.668;37.858;2023-03-01T05:39:34;4.63;;;1.02;;
34673;SDS011;20879;55.668;37.858;2023-03-01T05:42:09;1.98;;;0.70;;
34673;SDS011;20879;55.668;37.858;2023-03-01T05:44:39;3.53;;;0.88;;
34673;SDS011;20879;55.668;37.858;2023-03-01T05:47:10;2.47;;;0.93;;
34673;SDS011;20879;55.668;37.858;2023-03-01T05:49:44;1.85;;;0.70;;
34673;SDS011;20879;55.668;37.858;2023-03-01T05:52:21;2.20;;;0.77;;
34673;SDS011;20879;55.668;37.858;2023-03-01T05:54:50;1.98;;;0.80;;
34673;SDS011;20879;55.668;37.858;2023-03-01T05:57:27;1.67;;;0.77;;
34673;SDS011;20879;55.668;37.858;2023-03-01T05:59:57;5.38;;;1.17;;
34673;SDS011;20879;55.668;37.858;2023-03-01T06:02:30;7.63;;;1.00;;
34673;SDS011;20879;55.668;37.858;2023-03-01T06:05:00;4.25;;;1.10;;
34673;SDS011;20879;55.668;37.858;2023-03-01T06:07:31;2.30;;;1.00;;
34673;SDS011;20879;55.668;37.858;2023-03-01T06:10:07;2.05;;;0.85;;
34673;SDS011;20879;55.668;37.858;2023-03-01T06:12:47;3.20;;;1.40;;
34673;SDS011;20879;55.668;37.858;2023-03-01T06:15:17;2.45;;;0.80;;
34673;SDS011;20879;55.668;37.858;2023-03-01T06:17:49;3.88;;;1.20;;
34673;SDS011;20879;55.668;37.858;2023-03-01T06:20:29;3.47;;;1.13;;
34673;SDS011;20879;55.668;37.858;2023-03-01T06:22:58;3.42;;;1.17;;
34673;SDS011;20879;55.668;37.858;2023-03-01T06:25:28;2.67;;;1.05;;
34673;SDS011;20879;55.668;37.858;2023-03-01T06:27:58;3.53;;;1.00;;
34673;SDS011;20879;55.668;37.858;2023-03-01T06:30:32;1.88;;;0.98;;
34673;SDS011;20879;55.668;37.858;2023-03-01T06:33:08;2.10;;;0.90;;
34673;SDS011;20879;55.668;37.858;2023-03-01T06:35:39;2.28;;;1.08;;
34673;SDS011;20879;55.668;37.858;2023-03-01T06:38:14;2.40;;;0.80;;
34673;SDS011;20879;55.668;37.858;2023-03-01T06:40:45;3.35;;;1.10;;
34673;SDS011;20879;55.668;37.858;2023-03-01T06:43:20;3.45;;;1.13;;
34673;SDS011;20879;55.668;37.858;2023-03-01T06:45:49;1.98;;;1.10;;
34673;SDS011;20879;55.668;37.858;2023-03-01T06:48:21;3.58;;;0.98;;
34673;SDS011;20879;55.668;37.858;2023-03-01T06:50:50;3.13;;;1.08;;
34673;SDS011;20879;55.668;37.858;2023-03-01T06:53:19;1.77;;;0.85;;
34673;SDS011;20879;55.668;37.858;2023-03-01T06:55:53;3.70;;;1.98;;
34673;SDS011;20879;55.668;37.858;2023-03-01T06:58:24;2.13;;;0.98;;
34673;SDS011;20879;55.668;37.858;2023-03-01T07:00:59;2.55;;;0.80;;
34673;SDS011;20879;55.668;37.858;2023-03-01T07:03:40;0.70;;;0.55;;
34673;SDS011;20879;55.668;37.858;2023-03-01T07:06:15;3.30;;;1.10;;
34673;SDS011;20879;55.668;37.858;2023-03-01T07:08:44;3.55;;;1.50;;
34673;SDS011;20879;55.668;37.858;2023-03-01T07:11:19;2.53;;;1.00;;
34673;SDS011;20879;55.668;37.858;2023-03-01T07:13:53;3.40;;;1.17;;
34673;SDS011;20879;55.668;37.858;2023-03-01T07:16:24;2.88;;;1.20;;
34673;SDS011;20879;55.668;37.858;2023-03-01T07:18:55;2.33;;;1.23;;
34673;SDS011;20879;55.668;37.858;2023-03-01T07:21:32;3.00;;;1.00;;
34673;SDS011;20879;55.668;37.858;2023-03-01T07:24:01;2.13;;;1.13;;
34673;SDS011;20879;55.668;37.858;2023-03-01T07:26:30;6.55;;;1.70;;
34673;SDS011;20879;55.668;37.858;2023-03-01T07:29:00;1.70;;;0.98;;
34673;SDS011;20879;55.668;37.858;2023-03-01T07:31:35;2.25;;;0.93;;
34673;SDS011;20879;55.668;37.858;2023-03-01T07:34:06;3.00;;;1.30;;
34673;SDS011;20879;55.668;37.858;2023-03-01T07:36:42;4.18;;;1.65;;
34673;SDS011;20879;55.668;37.858;2023-03-01T07:39:13;3.70;;;1.50;;
34673;SDS011;20879;55.668;37.858;2023-03-01T07:41:44;3.75;;;1.05;;
34673;SDS011;20879;55.668;37.858;2023-03-01T07:44:13;2.08;;;1.20;;
34673;SDS011;20879;55.668;37.858;2023-03-01T07:46:43;2.15;;;1.30;;
34673;SDS011;20879;55.668;37.858;2023-03-01T07:49:14;3.10;;;1.40;;
34673;SDS011;20879;55.668;37.858;2023-03-01T07:51:44;3.13;;;1.77;;
34673;SDS011;20879;55.668;37.858;2023-03-01T07:54:13;6.10;;;1.77;;
34673;SDS011;20879;55.668;37.858;2023-03-01T07:56:42;4.95;;;1.60;;
34673;SDS011;20879;55.668;37.858;2023-03-01T07:59:17;3.10;;;1.30;;
34673;SDS011;20879;55.668;37.858;2023-03-01T08:01:55;2.05;;;1.25;;
34673;SDS011;20879;55.668;37.858;2023-03-01T08:04:32;3.85;;;1.42;;
34673;SDS011;20879;55.668;37.858;2023-03-01T08:07:04;3.75;;;1.63;;
34673;SDS011;20879;55.668;37.858;2023-03-01T08:09:34;3.67;;;1.52;;
34673;SDS011;20879;55.668;37.858;2023-03-01T08:12:03;3.45;;;1.15;;
34673;SDS011;20879;55.668;37.858;2023-03-01T08:14:33;3.08;;;1.50;;
34673;SDS011;20879;55.668;37.858;2023-03-01T08:17:03;2.97;;;1.17;;
34673;SDS011;20879;55.668;37.858;2023-03-01T08:19:34;4.10;;;2.00;;
34673;SDS011;20879;55.668;37.858;2023-03-01T08:22:03;3.13;;;1.40;;
34673;SDS011;20879;55.668;37.858;2023-03-01T08:24:32;11.90;;;1.85;;
34673;SDS011;20879;55.668;37.858;2023-03-01T08:27:07;4.22;;;1.75;;
34673;SDS011;20879;55.668;37.858;2023-03-01T08:29:36;2.03;;;1.08;;
34673;SDS011;20879;55.668;37.858;2023-03-01T08:32:06;6.82;;;1.33;;
34673;SDS011;20879;55.668;37.858;2023-03-01T08:34:37;2.75;;;1.00;;
34673;SDS011;20879;55.668;37.858;2023-03-01T08:37:08;2.38;;;1.20;;
34673;SDS011;20879;55.668;37.858;2023-03-01T08:39:38;4.45;;;1.48;;
34673;SDS011;20879;55.668;37.858;2023-03-01T08:42:07;0.93;;;0.55;;
34673;SDS011;20879;55.668;37.858;2023-03-01T08:44:38;4.50;;;1.50;;
34673;SDS011;20879;55.668;37.858;2023-03-01T08:47:08;1.30;;;0.75;;
34673;SDS011;20879;55.668;37.858;2023-03-01T08:49:39;2.35;;;1.33;;
34673;SDS011;20879;55.668;37.858;2023-03-01T08:52:13;3.08;;;1.10;;
34673;SDS011;20879;55.668;37.858;2023-03-01T08:54:53;2.65;;;1.20;;
34673;SDS011;20879;55.668;37.858;2023-03-01T08:57:23;1.60;;;1.08;;
34673;SDS011;20879;55.668;37.858;2023-03-01T08:59:52;1.88;;;1.27;;
34673;SDS011;20879;55.668;37.858;2023-03-01T09:02:22;1.98;;;1.27;;
34673;SDS011;20879;55.668;37.858;2023-03-01T09:04:53;2.88;;;1.50;;
34673;SDS011;20879;55.668;37.858;2023-03-01T09:07:23;1.90;;;1.08;;
34673;SDS011;20879;55.668;37.858;2023-03-01T09:09:59;3.35;;;1.10;;
34673;SDS011;20879;55.668;37.858;2023-03-01T09:12:28;1.58;;;1.02;;
34673;SDS011;20879;55.668;37.858;2023-03-01T09:15:03;2.53;;;1.23;;
34673;SDS011;20879;55.668;37.858;2023-03-01T09:17:32;2.65;;;1.58;;
34673;SDS011;20879;55.668;37.858;2023-03-01T09:20:04;3.83;;;1.25;;
34673;SDS011;20879;55.668;37.858;2023-03-01T09:22:34;3.55;;;1.95;;
34673;SDS011;20879;55.668;37.858;2023-03-01T09:25:03;3.58;;;1.20;;
34673;SDS011;20879;55.668;37.858;2023-03-01T09:27:33;4.25;;;1.55;;
34673;SDS011;20879;55.668;37.858;2023-03-01T09:30:03;1.90;;;0.90;;
34673;SDS011;20879;55.668;37.858;2023-03-01T09:32:38;4.82;;;1.48;;
34673;SDS011;20879;55.668;37.858;2023-03-01T09:35:10;3.92;;;1.08;;
34673;SDS011;20879;55.668;37.858;2023-03-01T09:37:40;9.10;;;1.70;;
34673;SDS011;20879;55.668;37.858;2023-03-01T09:40:16;4.53;;;1.23;;
34673;SDS011;20879;55.668;37.858;2023-03-01T09:42:58;3.28;;;1.08;;
34673;SDS011;20879;55.668;37.858;2023-03-01T09:45:37;2.45;;;1.55;;
34673;SDS011;20879;55.668;37.858;2023-03-01T09:48:12;4.72;;;1.00;;
34673;SDS011;20879;55.668;37.858;2023-03-01T09:50:47;2.67;;;1.20;;
34673;SDS011;20879;55.668;37.858;2023-03-01T09:53:22;3.30;;;1.08;;
34673;SDS011;20879;55.668;37.858;2023-03-01T09:56:10;2.00;;;1.02;;
34673;SDS011;20879;55.668;37.858;2023-03-01T09:58:48;2.75;;;1.00;;
34673;SDS011;20879;55.668;37.858;2023-03-01T10:01:28;3.92;;;1.38;;
34673;SDS011;20879;55.668;37.858;2023-03-01T10:04:06;0.98;;;0.75;;
34673;SDS011;20879;55.668;37.858;2023-03-01T10:06:51;4.68;;;1.23;;
34673;SDS011;20879;55.668;37.858;2023-03-01T10:09:33;2.40;;;1.27;;
34673;SDS011;20879;55.668;37.858;2023-03-01T10:12:04;2.35;;;0.90;;
34673;SDS011;20879;55.668;37.858;2023-03-01T10:14:38;4.40;;;1.20;;
34673;SDS011;20879;55.668;37.858;2023-03-01T10:17:14;1.83;;;1.20;;
34673;SDS011;20879;55.668;37.858;2023-03-01T10:19:51;2.75;;;1.30;;
34673;SDS011;20879;55.668;37.858;2023-03-01T10:22:28;7.55;;;1.40;;
34673;SDS011;20879;55.668;37.858;2023-03-01T10:24:59;2.67;;;1.40;;
34673;SDS011;20879;55.668;37.858;2023-03-01T10:27:38;3.33;;;1.08;;
34673;SDS011;20879;55.668;37.858;2023-03-01T10:30:17;2.35;;;1.05;;
34673;SDS011;20879;55.668;37.858;2023-03-01T10:32:51;3.70;;;1.48;;
34673;SDS011;20879;55.668;37.858;2023-03-01T10:35:23;1.58;;;1.02;;
34673;SDS011;20879;55.668;37.858;2023-03-01T10:40:31;3.65;;;1.15;;
34673;SDS011;20879;55.668;37.858;2023-03-01T10:43:01;1.35;;;0.70;;
34673;SDS011;20879;55.668;37.858;2023-03-01T10:45:33;1.83;;;1.08;;
34673;SDS011;20879;55.668;37.858;2023-03-01T10:50:34;4.53;;;1.60;;
34673;SDS011;20879;55.668;37.858;2023-03-01T10:53:16;2.10;;;1.15;;
34673;SDS011;20879;55.668;37.858;2023-03-01T10:56:04;1.98;;;0.77;;
34673;SDS011;20879;55.668;37.858;2023-03-01T10:58:41;3.40;;;0.98;;
34673;SDS011;20879;55.668;37.858;2023-03-01T11:01:26;1.60;;;1.10;;
34673;SDS011;20879;55.668;37.858;2023-03-01T11:04:10;3.67;;;0.90;;
34673;SDS011;20879;55.668;37.858;2023-03-01T11:09:15;2.97;;;1.00;;
34673;SDS011;20879;55.668;37.858;2023-03-01T11:11:50;3.83;;;1.25;;
34673;SDS011;20879;55.668;37.858;2023-03-01T11:14:21;2.10;;;1.20;;
34673;SDS011;20879;55.668;37.858;2023-03-01T11:17:00;2.42;;;1.05;;
34673;SDS011;20879;55.668;37.858;2023-03-01T11:19:31;2.10;;;1.00;;
34673;SDS011;20879;55.668;37.858;2023-03-01T11:22:02;3.17;;;1.20;;
34673;SDS011;20879;55.668;37.858;2023-03-01T11:24:37;1.83;;;0.95;;
34673;SDS011;20879;55.668;37.858;2023-03-01T11:27:15;1.60;;;0.55;;
34673;SDS011;20879;55.668;37.858;2023-03-01T11:29:50;2.20;;;1.00;;
34673;SDS011;20879;55.668;37.858;2023-03-01T11:32:25;2.58;;;0.82;;
34673;SDS011;20879;55.668;37.858;2023-03-01T11:35:02;3.13;;;1.15;;
34673;SDS011;20879;55.668;37.858;2023-03-01T11:37:35;2.38;;;1.02;;
34673;SDS011;20879;55.668;37.858;2023-03-01T11:40:15;2.95;;;1.00;;
34673;SDS011;20879;55.668;37.858;2023-03-01T11:42:54;2.45;;;0.65;;
34673;SDS011;20879;55.668;37.858;2023-03-01T11:45:46;1.27;;;0.82;;
34673;SDS011;20879;55.668;37.858;2023-03-01T11:48:29;2.10;;;0.95;;
34673;SDS011;20879;55.668;37.858;2023-03-01T11:51:18;2.58;;;1.13;;
34673;SDS011;20879;55.668;37.858;2023-03-01T11:53:59;3.00;;;1.10;;
34673;SDS011;20879;55.668;37.858;2023-03-01T11:56:38;3.47;;;1.10;;
34673;SDS011;20879;55.668;37.858;2023-03-01T12:08:25;3.72;;;1.10;;
34673;SDS011;20879;55.668;37.858;2023-03-01T12:11:04;4.10;;;0.80;;
34673;SDS011;20879;55.668;37.858;2023-03-01T12:13:55;3.28;;;0.82;;
34673;SDS011;20879;55.668;37.858;2023-03-01T12:16:48;2.17;;;0.90;;
34673;SDS011;20879;55.668;37.858;2023-03-01T12:22:34;3.28;;;0.80;;
34673;SDS011;20879;55.668;37.858;2023-03-01T12:25:16;1.05;;;0.80;;
34673;SDS011;20879;55.668;37.858;2023-03-01T12:33:53;2.08;;;0.98;;
34673;SDS011;20879;55.668;37.858;2023-03-01T12:39:22;1.52;;;0.88;;
34673;SDS011;20879;55.668;37.858;2023-03-01T12:42:13;3.00;;;0.70;;
34673;SDS011;20879;55.668;37.858;2023-03-01T12:45:01;1.25;;;0.70;;
34673;SDS011;20879;55.668;37.858;2023-03-01T12:53:08;1.42;;;0.60;;
34673;SDS011;20879;55.668;37.858;2023-03-01T12:55:50;3.13;;;0.93;;
34673;SDS011;20879;55.668;37.858;2023-03-01T12:58:29;2.03;;;0.60;;
34673;SDS011;20879;55.668;37.858;2023-03-01T13:01:18;2.78;;;0.82;;
34673;SDS011;20879;55.668;37.858;2023-03-01T13:04:06;1.08;;;0.63;;
34673;SDS011;20879;55.668;37.858;2023-03-01T13:06:47;0.80;;;0.50;;
34673;SDS011;20879;55.668;37.858;2023-03-01T13:09:31;2.30;;;0.60;;
34673;SDS011;20879;55.668;37.858;2023-03-01T13:15:24;2.53;;;0.85;;
34673;SDS011;20879;55.668;37.858;2023-03-01T13:18:00;1.92;;;0.80;;
34673;SDS011;20879;55.668;37.858;2023-03-01T13:20:33;2.22;;;0.90;;
34673;SDS011;20879;55.668;37.858;2023-03-01T13:23:23;1.35;;;0.80;;
34673;SDS011;20879;55.668;37.858;2023-03-01T13:26:03;1.75;;;0.77;;
34673;SDS011;20879;55.668;37.858;2023-03-01T13:28:50;1.95;;;0.73;;
34673;SDS011;20879;55.668;37.858;2023-03-01T13:37:10;0.68;;;0.57;;
34673;SDS011;20879;55.668;37.858;2023-03-01T13:39:47;1.23;;;0.50;;
34673;SDS011;20879;55.668;37.858;2023-03-01T13:45:36;1.65;;;0.70;;
34673;SDS011;20879;55.668;37.858;2023-03-01T13:48:09;2.15;;;0.60;;
34673;SDS011;20879;55.668;37.858;2023-03-01T13:50:44;3.53;;;1.00;;
34673;SDS011;20879;55.668;37.858;2023-03-01T13:53:17;0.88;;;0.75;;
34673;SDS011;20879;55.668;37.858;2023-03-01T13:55:50;2.22;;;0.55;;
34673;SDS011;20879;55.668;37.858;2023-03-01T13:58:24;3.95;;;1.27;;
34673;SDS011;20879;55.668;37.858;2023-03-01T14:00:55;1.15;;;0.68;;
34673;SDS011;20879;55.668;37.858;2023-03-01T14:03:26;1.58;;;0.73;;
34673;SDS011;20879;55.668;37.858;2023-03-01T14:06:04;0.55;;;0.43;;
34673;SDS011;20879;55.668;37.858;2023-03-01T14:08:47;1.67;;;0.50;;
34673;SDS011;20879;55.668;37.858;2023-03-01T14:14:32;2.65;;;1.08;;
34673;SDS011;20879;55.668;37.858;2023-03-01T14:17:18;1.50;;;0.70;;
34673;SDS011;20879;55.668;37.858;2023-03-01T14:22:46;1.10;;;0.52;;
34673;SDS011;20879;55.668;37.858;2023-03-01T14:25:19;1.67;;;0.80;;
34673;SDS011;20879;55.668;37.858;2023-03-01T14:27:58;1.35;;;0.70;;
34673;SDS011;20879;55.668;37.858;2023-03-01T14:30:35;1.05;;;0.68;;
34673;SDS011;20879;55.668;37.858;2023-03-01T14:33:17;2.10;;;0.70;;
34673;SDS011;20879;55.668;37.858;2023-03-01T14:35:53;1.10;;;0.77;;
34673;SDS011;20879;55.668;37.858;2023-03-01T14:38:29;2.22;;;0.70;;
34673;SDS011;20879;55.668;37.858;2023-03-01T14:41:08;0.85;;;0.50;;
34673;SDS011;20879;55.668;37.858;2023-03-01T14:43:43;0.70;;;0.57;;
34673;SDS011;20879;55.668;37.858;2023-03-01T14:46:21;3.67;;;0.93;;
34673;SDS011;20879;55.668;37.858;2023-03-01T14:49:02;2.63;;;0.75;;
34673;SDS011;20879;55.668;37.858;2023-03-01T14:51:35;2.63;;;0.73;;
34673;SDS011;20879;55.668;37.858;2023-03-01T14:54:10;1.35;;;0.82;;
34673;SDS011;20879;55.668;37.858;2023-03-01T14:56:50;4.82;;;0.80;;
34673;SDS011;20879;55.668;37.858;2023-03-01T14:59:26;1.38;;;0.68;;
34673;SDS011;20879;55.668;37.858;2023-03-01T15:01:58;1.35;;;0.60;;
34673;SDS011;20879;55.668;37.858;2023-03-01T15:07:00;2.07;;;0.80;;
34673;SDS011;20879;55.668;37.858;2023-03-01T15:09:31;1.70;;;1.05;;
34673;SDS011;20879;55.668;37.858;2023-03-01T15:15:21;1.67;;;0.82;;
34673;SDS011;20879;55.668;37.858;2023-03-01T15:18:01;0.82;;;0.82;;
34673;SDS011;20879;55.668;37.858;2023-03-01T15:20:32;2.83;;;1.15;;
34673;SDS011;20879;55.668;37.858;2023-03-01T15:23:06;4.07;;;0.85;;
34673;SDS011;20879;55.668;37.858;2023-03-01T15:25:53;2.88;;;1.00;;
34673;SDS011;20879;55.668;37.858;2023-03-01T15:28:25;3.05;;;0.73;;
34673;SDS011;20879;55.668;37.858;2023-03-01T15:30:58;2.60;;;0.80;;
34673;SDS011;20879;55.668;37.858;2023-03-01T15:33:33;3.22;;;1.30;;
34673;SDS011;20879;55.668;37.858;2023-03-01T15:39:00;2.88;;;0.70;;
34673;SDS011;20879;55.668;37.858;2023-03-01T15:41:38;2.65;;;1.10;;
34673;SDS011;20879;55.668;37.858;2023-03-01T15:44:16;2.83;;;1.23;;
34673;SDS011;20879;55.668;37.858;2023-03-01T15:47:21;1.70;;;0.80;;
34673;SDS011;20879;55.668;37.858;2023-03-01T15:50:00;5.35;;;1.00;;
34673;SDS011;20879;55.668;37.858;2023-03-01T15:52:45;2.28;;;0.80;;
34673;SDS011;20879;55.668;37.858;2023-03-01T15:55:22;1.55;;;0.75;;
34673;SDS011;20879;55.668;37.858;2023-03-01T15:57:58;1.60;;;1.00;;
34673;SDS011;20879;55.668;37.858;2023-03-01T16:00:29;0.80;;;0.70;;
34673;SDS011;20879;55.668;37.858;2023-03-01T16:02:58;1.67;;;1.10;;
34673;SDS011;20879;55.668;37.858;2023-03-01T16:05:30;1.20;;;0.70;;
34673;SDS011;20879;55.668;37.858;2023-03-01T16:08:02;1.30;;;0.70;;
34673;SDS011;20879;55.668;37.858;2023-03-01T16:10:37;0.98;;;0.80;;
34673;SDS011;20879;55.668;37.858;2023-03-01T16:13:10;3.80;;;1.20;;
34673;SDS011;20879;55.668;37.858;2023-03-01T16:15:40;2.08;;;1.10;;
34673;SDS011;20879;55.668;37.858;2023-03-01T16:20:51;0.82;;;0.45;;
34673;SDS011;20879;55.668;37.858;2023-03-01T16:23:32;0.70;;;0.50;;